Time;durP1;ratioP1;P1;durP2;ratioP2;P2;SDS_P1;SDS_P2;PMS_P1;PMS_P2;Temp;Humidity;BMP_temperature;BMP_pressure;BME280_temperature;BME280_humidity;BME280_pressure;Samples;Min_cycle;Max_cycle;Signal;HPM_P1;HPM_P2
2022/10/20 00:01:02;;;;;;;;;;;;;;;13.19;71.38;101425.53;5003669;28;19936;-74
2022/10/20 00:03:28;;;;;;;;;;;;;;;13.11;69.25;101416.16;5004290;28;19932;-74
2022/10/20 00:05:54;;;;;;;;;;;;;;;13.23;68.70;101402.88;5002543;28;20292;-74
2022/10/20 00:08:19;;;;;;;;;;;;;;;13.18;69.08;101399.50;4992153;28;19925;-74
2022/10/20 00:10:54;;;;;;;;;;;;;;;13.18;69.30;101389.94;5005444;28;20012;-74
2022/10/20 00:13:20;;;;;;;;;;;;;;;13.25;68.54;101375.00;5002952;28;19956;-74
2022/10/20 00:15:52;;;;;;;;;;;;;;;13.11;68.92;101377.03;5003544;28;19925;-74
2022/10/20 00:18:17;;;;;;;;;;;;;;;13.32;69.63;101378.31;5003615;28;19935;-74
2022/10/20 00:20:43;;;;;;;;;;;;;;;13.25;68.58;101390.66;5004233;28;20146;-74
2022/10/20 00:23:08;;;;;;;;;;;;;;;13.33;68.59;101375.69;5004314;28;20009;-72
2022/10/20 00:25:33;;;;;;;;;;;;;;;13.25;67.89;101372.41;5005065;28;19929;-74
2022/10/20 00:27:59;;;;;;;;;;;;;;;13.22;67.86;101380.31;4990090;28;20347;-74
2022/10/20 00:30:24;;;;;;;;;;;;;;;13.32;67.61;101376.56;5006261;28;19947;-74
2022/10/20 00:32:49;;;;;;;;;;;;;;;13.12;67.64;101365.72;5004456;28;19917;-74
2022/10/20 00:35:15;;;;;;;;;;;;;;;13.40;68.82;101369.44;5003561;28;19940;-74
2022/10/20 00:37:40;;;;;;;;;;;;;;;13.16;67.87;101373.47;5008445;28;20023;-74
2022/10/20 00:40:05;;;;;;;;;;;;;;;13.22;67.68;101372.47;5003028;28;20424;-74
2022/10/20 00:42:31;;;;;;;;;;;;;;;13.19;67.31;101373.38;5004931;28;19959;-74
2022/10/20 00:44:58;;;;;;;;;;;;;;;13.24;67.51;101360.25;5003737;28;19948;-74
2022/10/20 00:47:43;;;;;;;;;;;;;;;13.08;67.32;101359.72;5003990;28;19925;-74
2022/10/20 00:50:12;;;;;;;;;;;;;;;13.08;67.45;101356.25;4987130;28;20297;-74
2022/10/20 00:52:38;;;;;;;;;;;;;;;13.06;67.16;101356.28;5003158;28;19925;-74
2022/10/20 00:55:04;;;;;;;;;;;;;;;13.10;67.38;101350.13;5002986;28;19947;-74
2022/10/20 00:57:30;;;;;;;;;;;;;;;13.13;67.23;101351.81;5005135;28;19930;-74
2022/10/20 00:59:56;;;;;;;;;;;;;;;13.00;67.37;101347.72;5003745;28;19934;-74
2022/10/20 01:02:21;;;;;;;;;;;;;;;13.02;67.81;101353.75;5004298;28;19925;-74
2022/10/20 01:04:46;;;;;;;;;;;;;;;12.92;67.08;101350.53;5004460;28;20312;-74
2022/10/20 01:07:12;;;;;;;;;;;;;;;13.00;67.59;101348.59;5005708;28;19925;-74
2022/10/20 01:09:38;;;;;;;;;;;;;;;12.89;67.67;101353.19;4987567;28;19921;-74
2022/10/20 01:12:03;;;;;;;;;;;;;;;12.92;67.72;101339.22;5005191;28;19931;-74
2022/10/20 01:14:43;;;;;;;;;;;;;;;12.99;67.47;101339.03;5007361;28;20600;-74
2022/10/20 01:17:12;;;;;;;;;;;;;;;12.82;67.16;101324.66;5002785;28;20016;-74
2022/10/20 01:19:37;;;;;;;;;;;;;;;12.81;67.53;101325.56;4985571;28;19933;-74
2022/10/20 01:22:11;;;;;;;;;;;;;;;12.86;67.31;101321.09;5003073;28;19933;-74
2022/10/20 01:24:45;;;;;;;;;;;;;;;12.76;67.60;101315.22;5003280;28;20310;-74
2022/10/20 01:27:30;;;;;;;;;;;;;;;12.79;67.25;101320.38;4989086;28;19930;-74
2022/10/20 01:30:06;;;;;;;;;;;;;;;12.77;67.58;101319.56;5002226;28;19964;-74
2022/10/20 01:32:50;;;;;;;;;;;;;;;12.72;67.74;101313.56;4987728;28;20374;-74
2022/10/20 01:35:25;;;;;;;;;;;;;;;12.77;67.23;101310.88;4999715;28;20016;-74
2022/10/20 01:37:56;;;;;;;;;;;;;;;12.81;67.00;101312.53;5003458;28;19930;-74
2022/10/20 01:40:27;;;;;;;;;;;;;;;12.77;68.00;101310.88;5006250;28;19926;-73
2022/10/20 01:42:53;;;;;;;;;;;;;;;12.71;67.41;101298.84;5004466;28;19948;-74
2022/10/20 01:45:21;;;;;;;;;;;;;;;12.70;67.04;101298.84;5005755;28;19933;-74
2022/10/20 01:47:47;;;;;;;;;;;;;;;12.61;67.93;101305.13;5006560;28;19922;-74
2022/10/20 01:50:13;;;;;;;;;;;;;;;12.54;67.56;101293.13;5005538;28;19925;-74
2022/10/20 01:52:38;;;;;;;;;;;;;;;12.54;67.32;101293.94;5007677;28;19926;-74
2022/10/20 01:55:14;;;;;;;;;;;;;;;12.59;67.23;101292.13;5004783;28;19929;-74
2022/10/20 01:57:40;;;;;;;;;;;;;;;12.58;67.72;101284.31;5007506;28;19932;-74
2022/10/20 02:00:07;;;;;;;;;;;;;;;12.53;67.27;101278.38;5006248;28;20306;-73
2022/10/20 02:02:35;;;;;;;;;;;;;;;12.53;67.68;101276.63;5007630;28;19963;-74
2022/10/20 02:05:06;;;;;;;;;;;;;;;12.60;67.39;101274.75;5005857;28;19932;-74
2022/10/20 02:07:32;;;;;;;;;;;;;;;12.72;67.35;101281.44;5007227;28;19936;-74
2022/10/20 02:10:08;;;;;;;;;;;;;;;12.63;67.31;101266.88;5005815;28;19948;-74
2022/10/20 02:12:37;;;;;;;;;;;;;;;12.55;67.31;101248.78;5005749;28;19930;-74
2022/10/20 02:15:03;;;;;;;;;;;;;;;12.66;67.34;101252.00;5005316;28;19929;-74
2022/10/20 02:17:28;;;;;;;;;;;;;;;12.56;67.03;101255.72;5007008;28;19930;-74
2022/10/20 02:19:54;;;;;;;;;;;;;;;12.65;67.17;101239.88;5006433;28;20023;-74
2022/10/20 02:22:21;;;;;;;;;;;;;;;12.63;67.44;101238.19;5005771;28;19952;-74
2022/10/20 02:24:46;;;;;;;;;;;;;;;12.64;66.87;101243.34;5008229;28;20004;-74
2022/10/20 02:27:32;;;;;;;;;;;;;;;12.68;66.77;101243.28;5007238;28;20004;-74
2022/10/20 02:30:00;;;;;;;;;;;;;;;12.61;66.73;101242.56;5003257;28;20027;-74
2022/10/20 02:32:26;;;;;;;;;;;;;;;12.58;66.83;101240.88;5007600;28;20066;-74
2022/10/20 02:34:51;;;;;;;;;;;;;;;12.68;66.80;101240.69;5008594;28;20012;-74
2022/10/20 02:37:17;;;;;;;;;;;;;;;12.71;66.65;101241.47;5009817;28;20037;-74
2022/10/20 02:39:42;;;;;;;;;;;;;;;12.76;66.56;101241.38;5008104;28;20538;-74
2022/10/20 02:42:07;;;;;;;;;;;;;;;12.74;69.07;101240.56;5007113;28;20946;-74
2022/10/20 02:44:33;;;;;;;;;;;;;;;12.66;66.25;101231.13;5007810;28;19933;-74
2022/10/20 02:46:58;;;;;;;;;;;;;;;12.61;66.67;101226.94;5007323;28;19949;-73
2022/10/20 02:49:24;;;;;;;;;;;;;;;12.57;66.92;101230.50;5004677;28;19922;-74
2022/10/20 02:51:49;;;;;;;;;;;;;;;12.56;66.22;101221.81;5006113;28;19925;-74
2022/10/20 02:54:14;;;;;;;;;;;;;;;12.66;65.88;101227.72;5003283;28;19975;-74
2022/10/20 02:56:40;;;;;;;;;;;;;;;12.63;66.39;101233.81;5003591;28;19978;-74
2022/10/20 02:59:05;;;;;;;;;;;;;;;12.58;66.26;101229.59;5003605;28;19933;-74
2022/10/20 03:01:30;;;;;;;;;;;;;;;12.58;66.65;101222.66;5004396;28;19925;-74
2022/10/20 03:03:58;;;;;;;;;;;;;;;12.55;66.51;101217.50;5006902;28;19922;-74
2022/10/20 03:06:24;;;;;;;;;;;;;;;12.52;67.10;101211.47;5002374;28;20394;-74
2022/10/20 03:08:49;;;;;;;;;;;;;;;12.43;66.95;101207.31;4991580;28;19929;-75
2022/10/20 03:11:14;;;;;;;;;;;;;;;12.37;67.23;101202.22;5001911;28;19929;-74
2022/10/20 03:13:40;;;;;;;;;;;;;;;12.50;66.43;101200.22;5007237;28;19981;-74
2022/10/20 03:16:05;;;;;;;;;;;;;;;12.51;66.77;101196.72;5005871;28;19933;-74
2022/10/20 03:18:30;;;;;;;;;;;;;;;12.45;66.60;101204.69;5002179;28;19980;-74
2022/10/20 03:20:55;;;;;;;;;;;;;;;12.56;66.94;101202.72;5012361;28;20374;-74
2022/10/20 03:23:21;;;;;;;;;;;;;;;12.49;66.54;101199.34;5008957;28;19957;-74
2022/10/20 03:25:46;;;;;;;;;;;;;;;12.47;66.96;101200.28;4991344;28;19976;-74
2022/10/20 03:28:12;;;;;;;;;;;;;;;12.47;67.07;101205.50;5003058;28;19925;-74
2022/10/20 03:30:37;;;;;;;;;;;;;;;12.48;66.57;101200.22;5004665;28;19925;-74
2022/10/20 03:33:02;;;;;;;;;;;;;;;12.49;66.36;101191.53;5002029;28;19984;-74
2022/10/20 03:35:28;;;;;;;;;;;;;;;12.42;66.73;101186.50;5002273;28;20008;-74
2022/10/20 03:37:53;;;;;;;;;;;;;;;12.46;66.06;101175.97;5003272;28;20016;-74
2022/10/20 03:40:18;;;;;;;;;;;;;;;12.57;66.17;101181.81;5006906;28;19933;-74
2022/10/20 03:42:44;;;;;;;;;;;;;;;12.50;66.31;101195.00;5002762;28;20422;-74
2022/10/20 03:45:09;;;;;;;;;;;;;;;12.48;66.56;101189.81;5003733;28;19926;-74
2022/10/20 03:47:35;;;;;;;;;;;;;;;12.50;66.31;101181.97;4991520;28;19917;-74
2022/10/20 03:50:00;;;;;;;;;;;;;;;12.49;66.13;101170.69;5007363;28;19922;-74
2022/10/20 03:52:25;;;;;;;;;;;;;;;12.46;66.47;101165.53;5003154;28;19961;-74
2022/10/20 03:54:51;;;;;;;;;;;;;;;12.34;66.66;101167.56;5006287;28;19930;-75
2022/10/20 03:57:16;;;;;;;;;;;;;;;12.48;66.10;101166.38;5002033;28;20591;-74
2022/10/20 03:59:41;;;;;;;;;;;;;;;12.50;66.52;101168.94;5004469;28;19925;-74
2022/10/20 04:02:06;;;;;;;;;;;;;;;12.54;66.60;101170.63;5002725;28;19931;-75
2022/10/20 04:04:32;;;;;;;;;;;;;;;12.56;66.46;101177.53;5004383;28;19989;-75
2022/10/20 04:06:57;;;;;;;;;;;;;;;12.48;66.39;101170.75;5006839;28;19972;-74
2022/10/20 04:09:22;;;;;;;;;;;;;;;12.59;66.02;101172.25;5007510;28;19925;-74
2022/10/20 04:11:48;;;;;;;;;;;;;;;12.57;66.11;101163.59;5010083;28;19922;-74
2022/10/20 04:14:13;;;;;;;;;;;;;;;12.55;65.79;101152.34;5005453;28;20040;-74
2022/10/20 04:16:38;;;;;;;;;;;;;;;12.38;66.32;101145.78;4989668;28;20342;-74
2022/10/20 04:19:04;;;;;;;;;;;;;;;12.52;65.56;101131.56;4999530;28;20354;-74
2022/10/20 04:21:29;;;;;;;;;;;;;;;12.50;65.70;101124.66;5003382;28;20456;-73
2022/10/20 04:23:54;;;;;;;;;;;;;;;12.41;66.13;101130.06;5005154;28;19926;-74
2022/10/20 04:26:19;;;;;;;;;;;;;;;12.47;66.00;101135.16;5003775;28;19952;-74
2022/10/20 04:28:45;;;;;;;;;;;;;;;12.46;66.22;101123.00;5005906;28;19921;-74
2022/10/20 04:31:10;;;;;;;;;;;;;;;12.47;65.69;101128.19;5004458;28;19929;-74
2022/10/20 04:33:35;;;;;;;;;;;;;;;12.31;66.34;101115.53;5002945;28;19932;-74
2022/10/20 04:36:02;;;;;;;;;;;;;;;12.27;66.30;101117.38;5002294;28;19972;-74
2022/10/20 04:38:31;;;;;;;;;;;;;;;12.38;66.41;101109.31;5004969;28;19925;-74
2022/10/20 04:40:57;;;;;;;;;;;;;;;12.42;66.27;101110.94;5003181;28;20008;-74
2022/10/20 04:43:23;;;;;;;;;;;;;;;12.44;65.93;101111.75;5005100;28;19937;-74
2022/10/20 04:45:48;;;;;;;;;;;;;;;12.48;65.86;101114.25;5004870;28;19925;-74
2022/10/20 04:48:14;;;;;;;;;;;;;;;12.51;66.11;101113.34;5002357;28;20287;-74
2022/10/20 04:50:39;;;;;;;;;;;;;;;12.60;65.47;101102.75;4990739;28;20397;-74
2022/10/20 04:53:04;;;;;;;;;;;;;;;12.48;65.54;101096.00;5007682;28;19925;-74
2022/10/20 04:55:29;;;;;;;;;;;;;;;12.48;65.94;101096.00;5004182;28;19932;-74
2022/10/20 04:57:55;;;;;;;;;;;;;;;12.60;66.91;101102.75;4988415;28;19937;-74
2022/10/20 05:00:20;;;;;;;;;;;;;;;12.57;65.27;101088.00;5004170;28;19922;-74
2022/10/20 05:02:45;;;;;;;;;;;;;;;12.39;65.91;101084.97;4989641;28;19921;-74
2022/10/20 05:05:11;;;;;;;;;;;;;;;12.42;65.62;101082.28;4990330;28;19928;-74
2022/10/20 05:07:36;;;;;;;;;;;;;;;12.25;66.25;101081.81;5007351;28;20057;-74
2022/10/20 05:10:01;;;;;;;;;;;;;;;12.28;66.23;101086.94;5006943;28;19924;-74
2022/10/20 05:12:27;;;;;;;;;;;;;;;12.33;66.26;101079.91;5009356;28;19921;-74
2022/10/20 05:14:52;;;;;;;;;;;;;;;12.21;66.36;101080.19;5006240;28;20016;-74
2022/10/20 05:17:17;;;;;;;;;;;;;;;12.20;67.44;101065.44;5006635;28;20386;-74
2022/10/20 05:19:44;;;;;;;;;;;;;;;12.16;66.62;101059.44;5011592;28;19926;-75
2022/10/20 05:22:09;;;;;;;;;;;;;;;12.20;66.72;101066.28;4993475;28;19932;-75
2022/10/20 05:24:35;;;;;;;;;;;;;;;12.08;67.05;101048.34;5010598;28;19922;-75
2022/10/20 05:27:00;;;;;;;;;;;;;;;12.15;67.07;101046.47;5010179;28;19925;-75
2022/10/20 05:29:25;;;;;;;;;;;;;;;12.10;66.97;101049.16;4996316;28;19929;-74
2022/10/20 05:31:51;;;;;;;;;;;;;;;12.09;67.02;101050.06;4993031;28;20391;-74
2022/10/20 05:34:16;;;;;;;;;;;;;;;12.14;66.86;101043.00;5008862;28;20583;-75
2022/10/20 05:36:44;;;;;;;;;;;;;;;12.19;67.13;101043.72;5008150;28;19930;-74
2022/10/20 05:39:10;;;;;;;;;;;;;;;12.14;66.96;101037.78;5006766;28;20380;-74
2022/10/20 05:41:35;;;;;;;;;;;;;;;12.13;67.18;101036.94;5006964;28;19976;-74
2022/10/20 05:44:01;;;;;;;;;;;;;;;12.15;67.02;101047.31;5010573;28;20318;-74
2022/10/20 05:46:28;;;;;;;;;;;;;;;12.24;66.36;101031.47;5006965;28;19984;-74
2022/10/20 05:48:55;;;;;;;;;;;;;;;12.17;66.39;101022.09;5006943;28;19932;-75
2022/10/20 05:51:21;;;;;;;;;;;;;;;12.22;67.00;101022.81;5004868;28;19957;-75
2022/10/20 05:53:47;;;;;;;;;;;;;;;12.12;66.55;101021.34;5007141;28;19918;-74
2022/10/20 05:56:14;;;;;;;;;;;;;;;12.13;67.13;101024.81;5003626;28;19936;-74
2022/10/20 05:58:39;;;;;;;;;;;;;;;12.26;66.37;101031.44;5004527;28;19933;-74
2022/10/20 06:01:04;;;;;;;;;;;;;;;12.28;66.32;101040.06;4988453;28;20302;-74
2022/10/20 06:03:30;;;;;;;;;;;;;;;12.35;66.21;101026.00;5005950;28;20650;-74
2022/10/20 06:05:58;;;;;;;;;;;;;;;12.32;66.16;101029.53;5006258;28;20390;-74
2022/10/20 06:08:24;;;;;;;;;;;;;;;12.30;67.09;101027.88;5007779;28;19939;-74
2022/10/20 06:10:49;;;;;;;;;;;;;;;12.19;65.87;101038.53;5006844;28;20375;-74
2022/10/20 06:13:14;;;;;;;;;;;;;;;12.25;66.19;101038.38;5007138;28;19932;-74
2022/10/20 06:15:40;;;;;;;;;;;;;;;12.24;66.60;101054.06;4994755;28;20458;-74
2022/10/20 06:18:05;;;;;;;;;;;;;;;12.37;66.50;101050.25;5009167;28;19925;-74
2022/10/20 06:20:30;;;;;;;;;;;;;;;12.21;66.71;101049.78;4990455;28;20574;-74
2022/10/20 06:22:56;;;;;;;;;;;;;;;12.36;66.95;101045.97;4992430;28;19921;-74
2022/10/20 06:25:21;;;;;;;;;;;;;;;12.50;66.01;101049.09;5009378;28;19972;-74
2022/10/20 06:27:46;;;;;;;;;;;;;;;12.39;66.03;101051.09;5009752;28;19945;-74
2022/10/20 06:30:11;;;;;;;;;;;;;;;12.75;66.64;101050.22;5010035;28;20313;-74
2022/10/20 06:32:37;;;;;;;;;;;;;;;12.70;67.05;101051.22;5008434;28;19926;-75
2022/10/20 06:35:02;;;;;;;;;;;;;;;12.73;65.59;101040.72;5007610;28;19917;-74
2022/10/20 06:37:27;;;;;;;;;;;;;;;12.78;65.32;101036.25;5010931;28;19976;-74
2022/10/20 06:39:53;;;;;;;;;;;;;;;12.64;66.47;101039.19;5007484;28;19960;-74
2022/10/20 06:42:18;;;;;;;;;;;;;;;12.63;66.07;101034.91;5009534;28;20383;-74
2022/10/20 06:44:43;;;;;;;;;;;;;;;12.68;69.91;101040.84;5015281;28;19972;-74
2022/10/20 06:47:09;;;;;;;;;;;;;;;12.61;65.66;101040.13;5006826;28;20394;-74
2022/10/20 06:49:34;;;;;;;;;;;;;;;12.52;66.23;101029.06;5004893;28;19968;-74
2022/10/20 06:52:00;;;;;;;;;;;;;;;12.51;66.23;101030.78;5007850;28;20337;-74
2022/10/20 06:54:25;;;;;;;;;;;;;;;12.59;66.16;101039.34;5003311;28;20512;-74
2022/10/20 06:56:50;;;;;;;;;;;;;;;12.61;65.92;101049.69;5008062;28;19917;-74
2022/10/20 06:59:15;;;;;;;;;;;;;;;12.63;66.08;101042.72;5007981;28;20004;-74
2022/10/20 07:01:41;;;;;;;;;;;;;;;12.62;66.70;101056.63;5014841;28;19925;-74
2022/10/20 07:04:09;;;;;;;;;;;;;;;12.70;66.56;101056.44;5008831;28;19933;-74
2022/10/20 07:06:38;;;;;;;;;;;;;;;12.65;65.88;101062.63;4989475;28;20299;-74
2022/10/20 07:09:06;;;;;;;;;;;;;;;12.85;66.68;101063.88;5012570;28;19964;-74
2022/10/20 07:11:31;;;;;;;;;;;;;;;12.97;68.20;101064.41;5014804;28;19913;-75
2022/10/20 07:13:57;;;;;;;;;;;;;;;12.77;66.21;101064.06;5009865;28;19967;-75
2022/10/20 07:16:23;;;;;;;;;;;;;;;12.91;66.34;101061.09;5007818;28;19972;-75
2022/10/20 07:18:49;;;;;;;;;;;;;;;12.76;66.34;101053.66;5007898;28;19930;-74
2022/10/20 07:21:16;;;;;;;;;;;;;;;12.73;66.92;101043.31;5010181;28;19921;-74
2022/10/20 07:23:41;;;;;;;;;;;;;;;12.79;66.04;101035.34;5009153;28;19929;-74
2022/10/20 07:26:09;;;;;;;;;;;;;;;12.78;66.28;101024.06;5008758;28;19985;-74
2022/10/20 07:28:35;;;;;;;;;;;;;;;12.82;66.56;101028.31;5006789;28;19921;-74
2022/10/20 07:31:04;;;;;;;;;;;;;;;12.83;66.78;101017.00;5007430;28;19925;-74
2022/10/20 07:33:30;;;;;;;;;;;;;;;12.78;66.71;101020.63;5007051;28;19922;-75
2022/10/20 07:35:55;;;;;;;;;;;;;;;12.81;67.34;101017.94;5005283;28;20015;-74
2022/10/20 07:38:20;;;;;;;;;;;;;;;12.80;67.18;101029.25;5008675;28;20398;-74
2022/10/20 07:40:46;;;;;;;;;;;;;;;12.69;67.41;101041.72;5008752;28;19961;-74
2022/10/20 07:43:11;;;;;;;;;;;;;;;12.75;67.13;101029.34;5008005;28;19925;-74
2022/10/20 07:45:36;;;;;;;;;;;;;;;12.89;66.82;101023.78;5006666;28;19921;-74
2022/10/20 07:48:03;;;;;;;;;;;;;;;12.87;67.10;101036.03;5007773;28;19960;-74
2022/10/20 07:50:28;;;;;;;;;;;;;;;12.86;66.72;101037.78;5004592;28;19948;-74
2022/10/20 07:52:53;;;;;;;;;;;;;;;12.76;66.66;101031.06;5008200;28;20310;-74
2022/10/20 07:55:19;;;;;;;;;;;;;;;12.80;67.19;101030.09;5011611;28;19925;-74
2022/10/20 07:57:44;;;;;;;;;;;;;;;12.81;67.41;101044.00;5005659;28;20027;-74
2022/10/20 08:00:10;;;;;;;;;;;;;;;12.85;66.56;101037.78;5005750;28;20367;-74
2022/10/20 08:02:35;;;;;;;;;;;;;;;12.92;67.62;101031.53;5008160;28;19948;-74
2022/10/20 08:05:03;;;;;;;;;;;;;;;12.84;67.25;101051.75;5010488;28;19967;-74
2022/10/20 08:07:28;;;;;;;;;;;;;;;12.87;67.12;101030.81;5006772;28;19925;-74
2022/10/20 08:09:54;;;;;;;;;;;;;;;13.00;66.72;101024.34;4996707;28;19921;-74
2022/10/20 08:12:19;;;;;;;;;;;;;;;12.94;66.98;101016.69;5007175;28;19967;-74
2022/10/20 08:14:44;;;;;;;;;;;;;;;12.92;67.20;101014.16;5006748;28;20345;-74
2022/10/20 08:17:10;;;;;;;;;;;;;;;13.00;66.78;101019.16;5007909;28;19921;-74
2022/10/20 08:19:35;;;;;;;;;;;;;;;13.01;66.42;101008.69;5007712;28;19925;-74
2022/10/20 08:22:00;;;;;;;;;;;;;;;13.09;66.61;101016.28;5008427;28;19921;-74
2022/10/20 08:24:25;;;;;;;;;;;;;;;13.18;66.68;101018.66;5007779;28;19925;-74
2022/10/20 08:26:51;;;;;;;;;;;;;;;13.11;66.66;101015.34;5007528;28;19995;-74
2022/10/20 08:29:16;;;;;;;;;;;;;;;13.19;67.01;101022.97;4990033;28;20553;-74
2022/10/20 08:31:42;;;;;;;;;;;;;;;13.19;66.15;101031.63;5008821;28;19952;-74
2022/10/20 08:34:07;;;;;;;;;;;;;;;13.20;67.98;101029.88;5007671;28;20287;-74
2022/10/20 08:36:33;;;;;;;;;;;;;;;13.23;66.21;101030.66;5004787;28;19926;-74
2022/10/20 08:38:59;;;;;;;;;;;;;;;13.35;70.17;101021.63;5010254;28;19933;-74
2022/10/20 08:41:25;;;;;;;;;;;;;;;13.36;68.04;101005.09;5003382;28;19968;-74
2022/10/20 08:43:52;;;;;;;;;;;;;;;13.50;68.09;101009.91;5004880;28;19917;-74
2022/10/20 08:46:19;;;;;;;;;;;;;;;13.54;69.98;101015.00;5007988;28;19921;-74
2022/10/20 08:48:45;;;;;;;;;;;;;;;13.52;66.86;101022.00;5004965;28;20577;-74
2022/10/20 08:51:16;;;;;;;;;;;;;;;13.63;70.12;101013.88;5007618;28;19984;-75
2022/10/20 08:53:42;;;;;;;;;;;;;;;13.56;65.13;100999.28;5003626;28;19925;-74
2022/10/20 08:56:10;;;;;;;;;;;;;;;13.61;68.95;101008.69;4993100;28;19932;-74
2022/10/20 08:58:40;;;;;;;;;;;;;;;13.46;65.79;101001.28;5010084;28;19952;-74
2022/10/20 09:01:13;;;;;;;;;;;;;;;13.58;66.70;100994.88;5010971;28;20649;-74
2022/10/20 09:03:39;;;;;;;;;;;;;;;13.47;65.50;100994.31;5009759;28;19926;-74
2022/10/20 09:06:04;;;;;;;;;;;;;;;13.52;65.89;101000.28;5012688;28;19932;-74
2022/10/20 09:08:31;;;;;;;;;;;;;;;13.45;66.33;101002.22;5012677;28;19925;-74
2022/10/20 09:10:56;;;;;;;;;;;;;;;13.61;68.95;101000.03;5011568;28;20303;-74
2022/10/20 09:13:25;;;;;;;;;;;;;;;13.53;66.17;100987.19;5012789;28;19921;-74
2022/10/20 09:15:53;;;;;;;;;;;;;;;13.40;65.66;100993.69;5009981;28;19928;-74
2022/10/20 09:18:19;;;;;;;;;;;;;;;13.40;65.65;100992.81;5009447;28;19929;-74
2022/10/20 09:20:51;;;;;;;;;;;;;;;13.58;67.60;101008.78;5009693;28;19968;-74
2022/10/20 09:23:18;;;;;;;;;;;;;;;13.53;66.85;101004.59;5010752;28;20392;-74
2022/10/20 09:25:44;;;;;;;;;;;;;;;13.74;69.59;100997.00;4995376;28;19921;-74
2022/10/20 09:28:20;;;;;;;;;;;;;;;13.57;66.55;100980.97;5009517;28;19925;-74
2022/10/20 09:30:45;;;;;;;;;;;;;;;13.41;66.22;100987.53;5005221;28;19960;-74
2022/10/20 09:33:19;;;;;;;;;;;;;;;13.35;66.45;101011.19;5009950;28;19953;-74
2022/10/20 09:35:46;;;;;;;;;;;;;;;13.49;67.41;101000.38;5009308;28;20399;-74
2022/10/20 09:38:11;;;;;;;;;;;;;;;13.58;68.46;101018.38;5008727;28;20398;-74
2022/10/20 09:40:56;;;;;;;;;;;;;;;13.60;66.21;101007.00;5012927;28;19920;-74
2022/10/20 09:43:24;;;;;;;;;;;;;;;13.74;70.01;101011.81;5011721;28;19969;-74
2022/10/20 09:45:54;;;;;;;;;;;;;;;13.72;68.41;101008.41;5011161;28;19925;-75
2022/10/20 09:48:25;;;;;;;;;;;;;;;13.69;68.49;101006.75;5009739;28;20397;-75
2022/10/20 09:50:54;;;;;;;;;;;;;;;13.67;69.60;101013.75;5008839;28;19925;-74
2022/10/20 09:53:22;;;;;;;;;;;;;;;13.72;67.57;101011.88;5008020;28;19999;-74
2022/10/20 09:55:49;;;;;;;;;;;;;;;13.59;66.98;101012.25;5008707;28;19932;-74
2022/10/20 09:58:25;;;;;;;;;;;;;;;13.74;69.75;101020.50;5010890;28;19925;-74
2022/10/20 10:00:55;;;;;;;;;;;;;;;13.57;68.11;101021.88;5009421;28;19917;-74
2022/10/20 10:03:21;;;;;;;;;;;;;;;13.64;69.43;101029.47;5009878;28;19921;-74
2022/10/20 10:05:48;;;;;;;;;;;;;;;13.66;69.80;101026.84;5007672;28;19921;-74
2022/10/20 10:08:14;;;;;;;;;;;;;;;13.51;70.17;101030.75;5005863;28;19960;-74
2022/10/20 10:10:42;;;;;;;;;;;;;;;13.46;70.82;101024.78;5004863;28;19925;-74
2022/10/20 10:13:18;;;;;;;;;;;;;;;13.51;71.12;101030.75;5007144;28;19984;-74
2022/10/20 10:15:46;;;;;;;;;;;;;;;13.69;70.06;101017.19;5007939;28;20433;-74
2022/10/20 10:18:20;;;;;;;;;;;;;;;13.70;69.27;101018.06;5002547;28;19936;-74
2022/10/20 10:20:45;;;;;;;;;;;;;;;13.56;69.72;101012.34;5008300;28;20680;-74
2022/10/20 10:23:11;;;;;;;;;;;;;;;13.51;70.29;101004.66;5009172;28;19932;-74
2022/10/20 10:25:36;;;;;;;;;;;;;;;13.63;71.28;101012.13;5009265;28;19921;-74
2022/10/20 10:28:07;;;;;;;;;;;;;;;13.60;70.44;100999.16;5009645;28;19922;-74
2022/10/20 10:30:33;;;;;;;;;;;;;;;13.53;71.36;100997.63;5003542;28;19925;-74
2022/10/20 10:32:59;;;;;;;;;;;;;;;13.41;71.84;101013.63;5008784;28;20496;-74
2022/10/20 10:35:27;;;;;;;;;;;;;;;13.60;72.14;100999.16;5011121;28;19925;-74
2022/10/20 10:37:53;;;;;;;;;;;;;;;13.49;72.65;101000.38;5008102;28;19972;-74
2022/10/20 10:40:32;;;;;;;;;;;;;;;13.40;73.09;100993.69;5010127;28;19972;-74
2022/10/20 10:43:06;;;;;;;;;;;;;;;13.39;73.88;101009.34;5012947;28;19969;-74
2022/10/20 10:45:38;;;;;;;;;;;;;;;13.38;74.37;101000.66;5016617;28;19921;-74
2022/10/20 10:48:21;;;;;;;;;;;;;;;13.42;74.15;100993.63;5008053;28;19961;-74
2022/10/20 10:50:47;;;;;;;;;;;;;;;13.52;74.11;100987.25;5004375;28;19921;-75
2022/10/20 10:53:12;;;;;;;;;;;;;;;13.34;74.16;100975.59;5008313;28;19921;-75
2022/10/20 10:55:37;;;;;;;;;;;;;;;13.32;74.87;100964.31;5009659;28;19980;-75
2022/10/20 10:58:09;;;;;;;;;;;;;;;13.32;75.85;100994.75;5000379;28;19937;-74
2022/10/20 11:00:52;;;;;;;;;;;;;;;13.27;76.68;101030.56;5006776;28;19929;-74
2022/10/20 11:03:44;;;;;;;;;;;;;;;13.22;76.22;101033.31;5009167;28;20016;-74
2022/10/20 11:06:18;;;;;;;;;;;;;;;13.26;77.23;101045.38;4992965;28;19926;-74
2022/10/20 11:08:52;;;;;;;;;;;;;;;13.25;75.96;101038.47;5008372;28;20000;-74
2022/10/20 11:11:30;;;;;;;;;;;;;;;13.25;76.78;101040.22;5008081;28;19953;-74
2022/10/20 11:13:58;;;;;;;;;;;;;;;13.28;76.74;101047.94;5007741;28;20004;-74
2022/10/20 11:16:33;;;;;;;;;;;;;;;13.35;76.56;101049.47;5011599;28;20310;-74
2022/10/20 11:19:06;;;;;;;;;;;;;;;13.33;76.47;101040.84;5004537;28;19940;-74
2022/10/20 11:21:52;;;;;;;;;;;;;;;13.33;76.13;101043.44;4984434;28;19929;-74
2022/10/20 11:24:27;;;;;;;;;;;;;;;13.33;75.95;101041.69;5007939;28;19925;-74
2022/10/20 11:27:00;;;;;;;;;;;;;;;13.34;75.85;101043.44;5009693;28;19944;-74
2022/10/20 11:29:36;;;;;;;;;;;;;;;13.40;75.89;101037.19;5009100;28;19914;-74
2022/10/20 11:32:13;;;;;;;;;;;;;;;13.39;76.54;101028.47;5008655;28;20408;-74
2022/10/20 11:34:57;;;;;;;;;;;;;;;13.53;75.98;101028.94;5005076;28;20556;-74
2022/10/20 11:37:52;;;;;;;;;;;;;;;13.41;76.52;101023.22;5007453;28;19940;-74
2022/10/20 11:40:22;;;;;;;;;;;;;;;13.37;76.70;101016.38;4939157;28;20001;-75
2022/10/20 11:42:53;;;;;;;;;;;;;;;13.41;76.88;101005.81;5008776;28;19999;-75
2022/10/20 11:45:18;;;;;;;;;;;;;;;13.43;76.91;101001.41;5009821;28;19925;-74
2022/10/20 11:47:45;;;;;;;;;;;;;;;13.38;76.90;101000.66;5004738;28;19918;-74
2022/10/20 11:50:11;;;;;;;;;;;;;;;13.37;76.90;100998.97;5005778;28;20317;-74
2022/10/20 11:52:54;;;;;;;;;;;;;;;13.42;77.01;100991.88;5006654;28;19925;-74
2022/10/20 11:55:22;;;;;;;;;;;;;;;13.46;76.54;100982.19;5006833;28;19929;-74
2022/10/20 11:57:53;;;;;;;;;;;;;;;13.40;77.05;100978.03;5007511;28;19991;-75
2022/10/20 12:00:57;;;;;;;;;;;;;;;13.31;77.96;100967.00;5009031;28;19932;-74
2022/10/20 12:03:23;;;;;;;;;;;;;;;13.43;77.44;100956.19;4969415;28;19930;-74
2022/10/20 12:06:06;;;;;;;;;;;;;;;13.36;78.00;100958.13;4951773;28;19926;-74
2022/10/20 12:09:00;;;;;;;;;;;;;;;13.38;78.39;100963.28;4986815;28;19979;-74
2022/10/20 12:11:35;;;;;;;;;;;;;;;13.36;78.24;100965.09;4988561;28;19924;-74
2022/10/20 12:14:12;;;;;;;;;;;;;;;13.34;78.79;100978.19;5016745;28;19917;-74
2022/10/20 12:16:53;;;;;;;;;;;;;;;13.44;78.44;100953.53;5008622;28;19988;-74
2022/10/20 12:19:24;;;;;;;;;;;;;;;13.36;78.39;100950.28;5007466;28;20667;-74
2022/10/20 12:21:57;;;;;;;;;;;;;;;13.33;78.79;100945.16;5005679;28;19925;-74
2022/10/20 12:24:32;;;;;;;;;;;;;;;13.33;78.96;100933.88;5006650;28;20571;-74
2022/10/20 12:27:04;;;;;;;;;;;;;;;13.30;78.48;100926.13;4995991;28;20071;-74
2022/10/20 12:29:29;;;;;;;;;;;;;;;13.29;79.16;100921.81;5016401;28;20051;-74
2022/10/20 12:32:13;;;;;;;;;;;;;;;13.30;79.54;100913.94;4998220;28;20019;-74
2022/10/20 12:34:39;;;;;;;;;;;;;;;13.29;79.00;100920.06;4989707;28;20428;-74
2022/10/20 12:37:06;;;;;;;;;;;;;;;13.33;79.24;100921.69;5007274;28;20733;-74
2022/10/20 12:39:31;;;;;;;;;;;;;;;13.36;79.33;100916.38;5007481;28;20685;-74